ADDS METAR Data INFO
IDs: Format: Raw Decoded Include TAF

Data at: 1944 UTC 17 Feb 2018

KVTP 171942Z AUTO 20024G40KT 10SM CLR 02/M16 A3024 RMK AO2 P0001
KVTP 171924Z AUTO 20024G32KT 10SM CLR 02/M15 A3025 RMK AO2
KVTP 171906Z AUTO 21024G34KT 10SM CLR 01/M15 A3025 RMK AO2
KVTP 171841Z AUTO 20017G38KT 10SM CLR 01/M13 A3025 RMK AO2
KVTP 171823Z AUTO 20023G38KT 10SM CLR 01/M13 A3025 RMK AO2
KVTP 171806Z AUTO 21018G33KT 10SM CLR 01/M12 A3026 RMK AO2
KVTP 171742Z AUTO 20018G39KT 10SM CLR 00/M12 A3025 RMK AO2
KVTP 171724Z AUTO 21019G34KT 10SM CLR M01/M12 A3024 RMK AO2
KVTP 171706Z AUTO 20020G33KT 10SM CLR M01/M12 A3024 RMK AO2
KVTP 171642Z AUTO 21019G31KT 10SM CLR M02/M12 A3024 RMK AO2
KVTP 171624Z AUTO 21014G30KT 190V250 10SM CLR M03/M12 A3023 RMK AO2
KVTP 171606Z AUTO 21020G32KT 10SM CLR M03/M12 A3022 RMK AO2
KVTP 171542Z AUTO 20016G34KT 10SM CLR M05/M12 A3021 RMK AO2
KVTP 171524Z AUTO 20016G33KT 160V240 10SM CLR M05/M12 A3020 RMK AO2
KVTP 171506Z AUTO 21020G39KT 10SM CLR M06/M12 A3018 RMK AO2
KVTP 171442Z AUTO 21027G42KT 10SM CLR M06/M13 A3016 RMK AO2
KVTP 171424Z AUTO 21026G38KT 10SM CLR M06/M12 A3014 RMK AO2
KVTP 171406Z AUTO 20026G40KT 10SM CLR M06/M12 A3013 RMK AO2
KVTP 171342Z AUTO 20030G42KT 10SM CLR M06/M12 A3011 RMK AO2
KVTP 171324Z AUTO 20029G47KT 10SM CLR M06/M12 A3009 RMK AO2
KVTP 171306Z AUTO 20033G43KT 10SM CLR M06/M12 A3008 RMK AO2
KVTP 171242Z AUTO 20034G43KT 10SM CLR M06/M12 A3008 RMK AO2
KVTP 171224Z AUTO 20034G53KT 10SM CLR M06/M12 A3007 RMK AO2
KVTP 171206Z AUTO 20038G54KT 10SM CLR M06/M13 A3007 RMK AO2
KVTP 171142Z AUTO 20034G50KT 10SM CLR M06/M13 A3007 RMK AO2
KVTP 171124Z AUTO 20036G51KT 10SM CLR M06/M13 A3007 RMK AO2
KVTP 171106Z AUTO 20036G52KT 10SM CLR M06/M13 A3007 RMK AO2
KVTP 171044Z AUTO 20037G53KT 10SM CLR M06/M13 A3005 RMK AO2
KVTP 171018Z AUTO 20032G44KT 10SM CLR M06/M13 A3010 RMK AO2
KVTP 171006Z AUTO 20020G36KT 10SM CLR M06/M12 A3013 RMK AO2
KVTP 170944Z AUTO 20026G43KT 10SM CLR M06/M12 A3009 RMK AO2
KVTP 170924Z AUTO 20024G47KT 10SM CLR M05/M12 A3009 RMK AO2
KVTP 170906Z AUTO 20025G36KT 10SM CLR M05/M12 A3008 RMK AO2
KVTP 170844Z AUTO 20023G41KT 10SM CLR M05/M11 A3008 RMK AO2
KVTP 170826Z AUTO 20025G42KT 10SM CLR M05/M12 A3007 RMK AO2
KVTP 170806Z AUTO 20021G37KT 10SM CLR M05/M12 A3007 RMK AO2
KVTP 170746Z AUTO 21022G34KT 10SM CLR M05/M12 A3007 RMK AO2
KVTP 170723Z AUTO 21026G40KT 10SM CLR M05/M11 A3006 RMK AO2
KVTP 170706Z AUTO 20028G39KT 10SM CLR M05/M11 A3006 RMK AO2
KVTP 170642Z AUTO 20026G41KT 10SM CLR M05/M12 A3007 RMK AO2
KVTP 170624Z AUTO 20028G41KT 10SM CLR M05/M11 A3007 RMK AO2
KVTP 170606Z AUTO 20026G39KT 10SM CLR M05/M11 A3007 RMK AO2
KVTP 170542Z AUTO 20026G39KT 10SM CLR M05/M10 A3007 RMK AO2
KVTP 170524Z AUTO 20025G37KT 10SM CLR M05/M10 A3007 RMK AO2
KVTP 170506Z AUTO 20027G40KT 10SM CLR M05/M10 A3008 RMK AO2
KVTP 170442Z AUTO 21027G40KT 10SM CLR M04/M10 A3009 RMK AO2
KVTP 170424Z AUTO 20027G44KT 10SM CLR M04/M10 A3009 RMK AO2
KVTP 170406Z AUTO 21026G32KT 10SM CLR M05/M09 A3009 RMK AO2
KVTP 170342Z AUTO 20025G36KT 10SM CLR M04/M09 A3010 RMK AO2
KVTP 170324Z AUTO 20020G36KT 10SM CLR M04/M08 A3010 RMK AO2
KVTP 170306Z AUTO 21025G40KT 10SM CLR M03/M08 A3010 RMK AO2
KVTP 170242Z AUTO 21023G32KT 10SM CLR M03/M08 A3010 RMK AO2
KVTP 170224Z AUTO 20025G43KT 10SM CLR M03/M09 A3010 RMK AO2
KVTP 170206Z AUTO 21025G33KT 10SM CLR M03/M10 A3009 RMK AO2
KVTP 170141Z AUTO 21021G36KT 10SM CLR M03/M10 A3009 RMK AO2
KVTP 170123Z AUTO 20024G35KT 10SM CLR M03/M09 A3008 RMK AO2
KVTP 170106Z AUTO 21025G40KT 10SM CLR M03/M09 A3008 RMK AO2
KVTP 170041Z AUTO 21027G35KT 10SM CLR M02/M08 A3009 RMK AO2
KVTP 170023Z AUTO 20025G35KT 10SM CLR M02/M08 A3009 RMK AO2
KVTP 162354Z AUTO 20026G40KT 10SM CLR M02/M10 A3009 RMK AO2
KVTP 162342Z AUTO 20027G36KT 10SM CLR M02/M10 A3009 RMK AO2
KVTP 162324Z AUTO 21019G39KT 10SM CLR M01/M10 A3010 RMK AO2
KVTP 162306Z AUTO 20026G41KT 10SM CLR M01/M09 A3010 RMK AO2
KVTP 162242Z AUTO 20030G45KT 10SM CLR M01/M08 A3010 RMK AO2
KVTP 162224Z AUTO 20027G39KT 10SM CLR 00/M08 A3012 RMK AO2
KVTP 162206Z AUTO 20027G39KT 10SM CLR 00/M09 A3012 RMK AO2
KVTP 162142Z AUTO 20026G42KT 10SM CLR 00/M08 A3013 RMK AO2
KVTP 162124Z AUTO 20029G39KT 10SM CLR 00/M08 A3014 RMK AO2
KVTP 162106Z AUTO 20022G41KT 10SM CLR 00/M09 A3014 RMK AO2
KVTP 162042Z AUTO 20028G45KT 10SM CLR 00/M09 A3016 RMK AO2
KVTP 162024Z AUTO 20026G41KT 10SM CLR 00/M10 A3017 RMK AO2
KVTP 162006Z AUTO 20027G40KT 10SM CLR 00/M10 A3018 RMK AO2
KVTP 161941Z AUTO 20027G45KT 10SM CLR 00/M09 A3019 RMK AO2
KVTP 161923Z AUTO 20023G46KT 10SM CLR M01/M10 A3021 RMK AO2
KVTP 161905Z AUTO 21028G40KT 10SM CLR M01/M10 A3021 RMK AO2
KVTP 161842Z AUTO 20027G40KT 10SM CLR M01/M09 A3023 RMK AO2
KVTP 161824Z AUTO 21025G40KT 10SM CLR M02/M09 A3023 RMK AO2
KVTP 161806Z AUTO 21027G38KT 10SM CLR M02/M10 A3024 RMK AO2
KVTP 161742Z AUTO 21029G38KT 10SM SCT015 M03/M08 A3025 RMK AO2
KVTP 161724Z AUTO 21029G42KT 10SM CLR M03/M09 A3026 RMK AO2
KVTP 161706Z AUTO 20027G42KT 10SM CLR M03/M08 A3025 RMK AO2
KVTP 161642Z AUTO 21029G48KT 10SM CLR M05/M09 A3025 RMK AO2
KVTP 161624Z AUTO 21024G42KT 10SM CLR M05/M09 A3026 RMK AO2
KVTP 161606Z AUTO 21025G40KT 10SM SCT012 M05/M08 A3026 RMK AO2
KVTP 161542Z AUTO 21027G39KT 10SM CLR M06/M08 A3026 RMK AO2
KVTP 161524Z AUTO 21024G38KT 10SM CLR M06/M09 A3025 RMK AO2
KVTP 161506Z AUTO 21025G35KT 10SM CLR M06/M09 A3025 RMK AO2
KVTP 161442Z AUTO 20023G34KT 10SM CLR M06/M08 A3024 RMK AO2
KVTP 161424Z AUTO 20029G38KT 10SM CLR M06/M08 A3024 RMK AO2
KVTP 161406Z AUTO 20022G32KT 10SM CLR M07/M08 A3024 RMK AO2
KVTP 161342Z AUTO 20023G33KT 10SM CLR M07/M08 A3024 RMK AO2
KVTP 161324Z AUTO 21025G35KT 10SM CLR M07/M08 A3025 RMK AO2
KVTP 161306Z AUTO 21017G34KT 180V240 10SM CLR M06/M08 A3026 RMK AO2
KVTP 161242Z AUTO 20018G26KT 10SM CLR M06/M08 A3026 RMK AO2
KVTP 161224Z AUTO 20016G27KT 10SM SCT110 M06/M08 A3026 RMK AO2
KVTP 161206Z AUTO 20016G22KT 10SM CLR M06/M08 A3026 RMK AO2
KVTP 161146Z AUTO 20015G20KT 10SM CLR M06/M08 A3026 RMK AO2
KVTP 161122Z AUTO 20012G22KT 10SM SCT003 SCT007 SCT027 M06/M08 A3026 RMK AO2
KVTP 161054Z AUTO 20013G20KT 10SM BKN003 BKN025 OVC037 M06/M08 A3027 RMK AO2
KVTP 161042Z AUTO 20011G20KT 10SM BKN001 BKN014 OVC039 M06/M07 A3027 RMK AO2
KVTP 161024Z AUTO 19013G19KT 10SM SCT003 BKN036 OVC042 M06/M07 A3027 RMK AO2
KVTP 161006Z AUTO 21010G18KT 10SM SCT003 BKN034 OVC041 M06/M08 A3028 RMK AO2
KVTP 160941Z AUTO 20011G17KT 170V240 10SM SCT032 BKN040 OVC046 M06/M08 A3028 RMK AO2
KVTP 160923Z AUTO 21008KT 10SM BKN040 BKN046 M06/M08 A3029 RMK AO2
KVTP 160906Z AUTO 22009KT 10SM SCT040 SCT046 M07/M08 A3029 RMK AO2
KVTP 160841Z AUTO 22009KT 10SM SCT001 SCT039 BKN050 M07/M09 A3029 RMK AO2
KVTP 160823Z AUTO 22008KT 3SM BR BKN001 BKN039 OVC055 M08/M10 A3029 RMK AO2
KVTP 160806Z AUTO 36006KT 1/2SM FZFG OVC001 M09/M10 A3029 RMK AO2